Terminal Aerodrome Forecast
Issued by NWS

Home | Current Version | Previous Version | Text Only | Print | Product List | Glossary On
Versions: 1 2 3 4 5 6 7 8 9 10 11 12 13 14 15 16 17 18 19 20 21 22 23 24 25 26 27 28 29
000
FTUS44 KTSA 210500
TAFXNA
TAF
KXNA 210527Z 2106/2206 18002KT P6SM OVC020
     FM210800 18002KT 4SM BR OVC015
     FM211200 17002KT 2SM BR OVC004
     FM211800 17008KT 3SM BR OVC007
     FM220000 17008KT 5SM BR OVC015=

USA.gov is the U.S. government's official web portal to all federal, state and local government web resources and services.